sensor_id;sensor_type;location;lat;lon;timestamp;P1;durP1;ratioP1;P2;durP2;ratioP2
10910;SDS011;5508;49.150;11.030;2024-02-15T00:00:48;9.60;;;7.20;;
10910;SDS011;5508;49.150;11.030;2024-02-15T00:03:48;11.53;;;7.10;;
10910;SDS011;5508;49.150;11.030;2024-02-15T00:06:49;26.07;;;8.27;;
10910;SDS011;5508;49.150;11.030;2024-02-15T00:09:50;14.40;;;8.03;;
10910;SDS011;5508;49.150;11.030;2024-02-15T00:12:50;14.90;;;8.10;;
10910;SDS011;5508;49.150;11.030;2024-02-15T00:15:51;12.00;;;7.30;;
10910;SDS011;5508;49.150;11.030;2024-02-15T00:18:52;13.87;;;7.17;;
10910;SDS011;5508;49.150;11.030;2024-02-15T00:21:55;8.70;;;7.37;;
10910;SDS011;5508;49.150;11.030;2024-02-15T00:24:56;22.23;;;7.40;;
10910;SDS011;5508;49.150;11.030;2024-02-15T00:27:57;13.60;;;6.90;;
10910;SDS011;5508;49.150;11.030;2024-02-15T00:31:00;8.73;;;6.43;;
10910;SDS011;5508;49.150;11.030;2024-02-15T00:34:00;8.67;;;6.77;;
10910;SDS011;5508;49.150;11.030;2024-02-15T00:37:02;21.60;;;7.70;;
10910;SDS011;5508;49.150;11.030;2024-02-15T00:40:03;8.43;;;6.10;;
10910;SDS011;5508;49.150;11.030;2024-02-15T00:43:04;11.37;;;7.07;;
10910;SDS011;5508;49.150;11.030;2024-02-15T00:46:05;14.80;;;6.63;;
10910;SDS011;5508;49.150;11.030;2024-02-15T00:49:05;17.43;;;7.87;;
10910;SDS011;5508;49.150;11.030;2024-02-15T00:52:06;15.63;;;6.87;;
10910;SDS011;5508;49.150;11.030;2024-02-15T00:55:07;11.47;;;7.20;;
10910;SDS011;5508;49.150;11.030;2024-02-15T00:58:07;7.47;;;6.60;;
10910;SDS011;5508;49.150;11.030;2024-02-15T01:01:08;10.77;;;6.13;;
10910;SDS011;5508;49.150;11.030;2024-02-15T01:04:09;15.43;;;6.97;;
10910;SDS011;5508;49.150;11.030;2024-02-15T01:07:09;8.73;;;6.10;;
10910;SDS011;5508;49.150;11.030;2024-02-15T01:10:10;8.80;;;5.73;;
10910;SDS011;5508;49.150;11.030;2024-02-15T01:13:11;12.67;;;5.97;;
10910;SDS011;5508;49.150;11.030;2024-02-15T01:16:12;10.67;;;5.90;;
10910;SDS011;5508;49.150;11.030;2024-02-15T01:19:12;11.40;;;6.47;;
10910;SDS011;5508;49.150;11.030;2024-02-15T01:22:13;8.63;;;6.33;;
10910;SDS011;5508;49.150;11.030;2024-02-15T01:25:14;18.73;;;6.10;;
10910;SDS011;5508;49.150;11.030;2024-02-15T01:28:17;11.03;;;6.07;;
10910;SDS011;5508;49.150;11.030;2024-02-15T01:31:18;17.27;;;6.37;;
10910;SDS011;5508;49.150;11.030;2024-02-15T01:34:18;17.60;;;7.07;;
10910;SDS011;5508;49.150;11.030;2024-02-15T01:37:20;18.13;;;6.47;;
10910;SDS011;5508;49.150;11.030;2024-02-15T01:40:20;8.50;;;5.87;;
10910;SDS011;5508;49.150;11.030;2024-02-15T01:43:21;8.53;;;6.30;;
10910;SDS011;5508;49.150;11.030;2024-02-15T01:46:22;20.47;;;7.27;;
10910;SDS011;5508;49.150;11.030;2024-02-15T01:49:23;22.70;;;6.80;;
10910;SDS011;5508;49.150;11.030;2024-02-15T01:52:24;9.20;;;5.93;;
10910;SDS011;5508;49.150;11.030;2024-02-15T01:55:25;8.37;;;5.80;;
10910;SDS011;5508;49.150;11.030;2024-02-15T01:58:26;16.47;;;6.40;;
10910;SDS011;5508;49.150;11.030;2024-02-15T02:01:28;10.73;;;5.60;;
10910;SDS011;5508;49.150;11.030;2024-02-15T02:04:32;6.43;;;4.97;;
10910;SDS011;5508;49.150;11.030;2024-02-15T02:07:33;7.13;;;5.13;;
10910;SDS011;5508;49.150;11.030;2024-02-15T02:10:33;6.20;;;4.97;;
10910;SDS011;5508;49.150;11.030;2024-02-15T02:13:34;12.27;;;5.73;;
10910;SDS011;5508;49.150;11.030;2024-02-15T02:16:35;8.17;;;5.10;;
10910;SDS011;5508;49.150;11.030;2024-02-15T02:19:35;8.37;;;4.97;;
10910;SDS011;5508;49.150;11.030;2024-02-15T02:22:38;12.60;;;4.60;;
10910;SDS011;5508;49.150;11.030;2024-02-15T02:25:41;6.87;;;5.20;;
10910;SDS011;5508;49.150;11.030;2024-02-15T02:28:43;19.70;;;5.40;;
10910;SDS011;5508;49.150;11.030;2024-02-15T02:31:43;11.77;;;5.47;;
10910;SDS011;5508;49.150;11.030;2024-02-15T02:34:44;13.50;;;5.73;;
10910;SDS011;5508;49.150;11.030;2024-02-15T02:37:44;14.63;;;5.53;;
10910;SDS011;5508;49.150;11.030;2024-02-15T02:40:46;8.47;;;4.90;;
10910;SDS011;5508;49.150;11.030;2024-02-15T02:43:47;5.73;;;4.90;;
10910;SDS011;5508;49.150;11.030;2024-02-15T02:46:47;4.93;;;4.40;;
10910;SDS011;5508;49.150;11.030;2024-02-15T02:49:48;14.33;;;4.87;;
10910;SDS011;5508;49.150;11.030;2024-02-15T02:52:48;13.37;;;4.97;;
10910;SDS011;5508;49.150;11.030;2024-02-15T02:55:49;11.23;;;5.23;;
10910;SDS011;5508;49.150;11.030;2024-02-15T02:58:51;9.60;;;5.20;;
10910;SDS011;5508;49.150;11.030;2024-02-15T03:01:52;10.57;;;5.17;;
10910;SDS011;5508;49.150;11.030;2024-02-15T03:04:56;9.97;;;4.43;;
10910;SDS011;5508;49.150;11.030;2024-02-15T03:07:57;19.57;;;5.67;;
10910;SDS011;5508;49.150;11.030;2024-02-15T03:10:58;6.37;;;4.60;;
10910;SDS011;5508;49.150;11.030;2024-02-15T03:13:59;11.90;;;4.47;;
10910;SDS011;5508;49.150;11.030;2024-02-15T03:16:59;17.60;;;5.17;;
10910;SDS011;5508;49.150;11.030;2024-02-15T03:20:03;7.40;;;4.83;;
10910;SDS011;5508;49.150;11.030;2024-02-15T03:23:10;16.53;;;5.30;;
10910;SDS011;5508;49.150;11.030;2024-02-15T03:26:11;6.57;;;4.23;;
10910;SDS011;5508;49.150;11.030;2024-02-15T03:29:12;12.33;;;4.83;;
10910;SDS011;5508;49.150;11.030;2024-02-15T03:32:12;9.87;;;4.30;;
10910;SDS011;5508;49.150;11.030;2024-02-15T03:35:13;13.60;;;4.70;;
10910;SDS011;5508;49.150;11.030;2024-02-15T03:38:14;9.13;;;5.20;;
10910;SDS011;5508;49.150;11.030;2024-02-15T03:41:14;15.20;;;4.93;;
10910;SDS011;5508;49.150;11.030;2024-02-15T03:44:15;16.87;;;4.90;;
10910;SDS011;5508;49.150;11.030;2024-02-15T03:47:18;13.07;;;4.80;;
10910;SDS011;5508;49.150;11.030;2024-02-15T03:50:19;11.73;;;4.63;;
10910;SDS011;5508;49.150;11.030;2024-02-15T03:53:21;15.57;;;4.70;;
10910;SDS011;5508;49.150;11.030;2024-02-15T03:56:22;15.17;;;5.63;;
10910;SDS011;5508;49.150;11.030;2024-02-15T03:59:22;16.20;;;4.87;;
10910;SDS011;5508;49.150;11.030;2024-02-15T04:02:26;23.23;;;5.40;;
10910;SDS011;5508;49.150;11.030;2024-02-15T04:05:28;7.93;;;4.30;;
10910;SDS011;5508;49.150;11.030;2024-02-15T04:08:29;10.60;;;4.50;;
10910;SDS011;5508;49.150;11.030;2024-02-15T04:11:29;13.60;;;4.83;;
10910;SDS011;5508;49.150;11.030;2024-02-15T04:14:32;23.67;;;5.33;;
10910;SDS011;5508;49.150;11.030;2024-02-15T04:17:33;6.27;;;4.20;;
10910;SDS011;5508;49.150;11.030;2024-02-15T04:20:34;5.43;;;4.23;;
10910;SDS011;5508;49.150;11.030;2024-02-15T04:23:35;9.53;;;5.20;;
10910;SDS011;5508;49.150;11.030;2024-02-15T04:26:36;18.07;;;5.97;;
10910;SDS011;5508;49.150;11.030;2024-02-15T04:29:37;10.00;;;4.30;;
10910;SDS011;5508;49.150;11.030;2024-02-15T04:32:40;19.77;;;5.53;;
10910;SDS011;5508;49.150;11.030;2024-02-15T04:35:41;7.50;;;4.33;;
10910;SDS011;5508;49.150;11.030;2024-02-15T04:38:43;5.40;;;4.47;;
10910;SDS011;5508;49.150;11.030;2024-02-15T04:41:44;11.27;;;5.77;;
10910;SDS011;5508;49.150;11.030;2024-02-15T04:44:46;15.63;;;8.87;;
10910;SDS011;5508;49.150;11.030;2024-02-15T04:47:47;5.30;;;4.53;;
10910;SDS011;5508;49.150;11.030;2024-02-15T04:50:49;4.97;;;3.73;;
10910;SDS011;5508;49.150;11.030;2024-02-15T04:53:51;7.37;;;3.97;;
10910;SDS011;5508;49.150;11.030;2024-02-15T04:56:52;6.80;;;4.70;;
10910;SDS011;5508;49.150;11.030;2024-02-15T04:59:54;10.90;;;4.80;;
10910;SDS011;5508;49.150;11.030;2024-02-15T05:02:55;9.77;;;4.50;;
10910;SDS011;5508;49.150;11.030;2024-02-15T05:05:56;8.10;;;4.67;;
10910;SDS011;5508;49.150;11.030;2024-02-15T05:08:57;7.07;;;4.47;;
10910;SDS011;5508;49.150;11.030;2024-02-15T05:11:59;12.43;;;4.50;;
10910;SDS011;5508;49.150;11.030;2024-02-15T05:15:02;6.27;;;5.00;;
10910;SDS011;5508;49.150;11.030;2024-02-15T05:18:10;10.73;;;8.13;;
10910;SDS011;5508;49.150;11.030;2024-02-15T05:21:10;13.13;;;9.37;;
10910;SDS011;5508;49.150;11.030;2024-02-15T05:24:15;40.53;;;20.50;;
10910;SDS011;5508;49.150;11.030;2024-02-15T05:27:16;18.87;;;11.73;;
10910;SDS011;5508;49.150;11.030;2024-02-15T05:30:17;15.20;;;9.03;;
10910;SDS011;5508;49.150;11.030;2024-02-15T05:33:18;23.23;;;17.17;;
10910;SDS011;5508;49.150;11.030;2024-02-15T05:36:19;33.03;;;21.93;;
10910;SDS011;5508;49.150;11.030;2024-02-15T05:39:22;30.50;;;23.17;;
10910;SDS011;5508;49.150;11.030;2024-02-15T05:42:23;13.07;;;7.67;;
10910;SDS011;5508;49.150;11.030;2024-02-15T05:48:29;18.30;;;14.20;;
10910;SDS011;5508;49.150;11.030;2024-02-15T05:51:30;8.60;;;5.87;;
10910;SDS011;5508;49.150;11.030;2024-02-15T05:54:31;11.27;;;5.50;;
10910;SDS011;5508;49.150;11.030;2024-02-15T05:57:32;14.47;;;6.83;;
10910;SDS011;5508;49.150;11.030;2024-02-15T06:00:33;33.73;;;27.47;;
10910;SDS011;5508;49.150;11.030;2024-02-15T06:03:34;16.93;;;7.93;;
10910;SDS011;5508;49.150;11.030;2024-02-15T06:06:37;28.03;;;13.87;;
10910;SDS011;5508;49.150;11.030;2024-02-15T06:09:38;42.97;;;28.83;;
10910;SDS011;5508;49.150;11.030;2024-02-15T06:12:41;62.47;;;46.03;;
10910;SDS011;5508;49.150;11.030;2024-02-15T06:15:41;48.80;;;34.10;;
10910;SDS011;5508;49.150;11.030;2024-02-15T06:18:42;10.70;;;7.70;;
10910;SDS011;5508;49.150;11.030;2024-02-15T06:21:43;10.27;;;6.47;;
10910;SDS011;5508;49.150;11.030;2024-02-15T06:24:43;16.70;;;10.70;;
10910;SDS011;5508;49.150;11.030;2024-02-15T06:27:44;10.87;;;7.10;;
10910;SDS011;5508;49.150;11.030;2024-02-15T06:30:45;18.90;;;12.73;;
10910;SDS011;5508;49.150;11.030;2024-02-15T06:34:05;10.23;;;5.63;;
10910;SDS011;5508;49.150;11.030;2024-02-15T06:37:36;11.57;;;6.23;;
10910;SDS011;5508;49.150;11.030;2024-02-15T06:40:56;15.47;;;9.10;;
10910;SDS011;5508;49.150;11.030;2024-02-15T06:43:57;15.23;;;6.93;;
10910;SDS011;5508;49.150;11.030;2024-02-15T06:46:58;24.73;;;14.43;;
10910;SDS011;5508;49.150;11.030;2024-02-15T06:49:59;20.13;;;14.50;;
10910;SDS011;5508;49.150;11.030;2024-02-15T06:53:00;18.37;;;9.53;;
10910;SDS011;5508;49.150;11.030;2024-02-15T06:56:00;21.07;;;10.50;;
10910;SDS011;5508;49.150;11.030;2024-02-15T06:59:02;21.03;;;11.57;;
10910;SDS011;5508;49.150;11.030;2024-02-15T07:02:03;10.20;;;7.63;;
10910;SDS011;5508;49.150;11.030;2024-02-15T07:05:07;16.03;;;7.33;;
10910;SDS011;5508;49.150;11.030;2024-02-15T07:08:10;11.50;;;6.90;;
10910;SDS011;5508;49.150;11.030;2024-02-15T07:11:12;10.27;;;7.43;;
10910;SDS011;5508;49.150;11.030;2024-02-15T07:14:13;9.27;;;7.67;;
10910;SDS011;5508;49.150;11.030;2024-02-15T07:17:15;8.43;;;5.10;;
10910;SDS011;5508;49.150;11.030;2024-02-15T07:20:16;9.97;;;5.50;;
10910;SDS011;5508;49.150;11.030;2024-02-15T07:23:17;7.27;;;5.37;;
10910;SDS011;5508;49.150;11.030;2024-02-15T07:26:18;10.63;;;5.30;;
10910;SDS011;5508;49.150;11.030;2024-02-15T07:29:20;8.00;;;5.30;;
10910;SDS011;5508;49.150;11.030;2024-02-15T07:32:23;10.57;;;5.30;;
10910;SDS011;5508;49.150;11.030;2024-02-15T07:35:23;12.07;;;5.10;;
10910;SDS011;5508;49.150;11.030;2024-02-15T07:38:25;12.37;;;6.00;;
10910;SDS011;5508;49.150;11.030;2024-02-15T07:41:25;15.90;;;4.90;;
10910;SDS011;5508;49.150;11.030;2024-02-15T07:44:26;6.50;;;4.73;;
10910;SDS011;5508;49.150;11.030;2024-02-15T07:47:30;10.57;;;4.87;;
10910;SDS011;5508;49.150;11.030;2024-02-15T07:50:30;8.57;;;5.80;;
10910;SDS011;5508;49.150;11.030;2024-02-15T07:53:31;9.67;;;6.73;;
10910;SDS011;5508;49.150;11.030;2024-02-15T07:56:32;20.03;;;12.27;;
10910;SDS011;5508;49.150;11.030;2024-02-15T07:59:32;20.27;;;8.20;;
10910;SDS011;5508;49.150;11.030;2024-02-15T08:02:33;8.43;;;6.83;;
10910;SDS011;5508;49.150;11.030;2024-02-15T08:05:34;15.73;;;7.27;;
10910;SDS011;5508;49.150;11.030;2024-02-15T08:08:36;7.60;;;5.63;;
10910;SDS011;5508;49.150;11.030;2024-02-15T08:11:37;9.40;;;5.33;;
10910;SDS011;5508;49.150;11.030;2024-02-15T08:14:39;8.67;;;5.20;;
10910;SDS011;5508;49.150;11.030;2024-02-15T08:17:40;10.03;;;4.67;;
10910;SDS011;5508;49.150;11.030;2024-02-15T08:20:41;11.87;;;4.23;;
10910;SDS011;5508;49.150;11.030;2024-02-15T08:23:44;17.17;;;4.80;;
10910;SDS011;5508;49.150;11.030;2024-02-15T08:26:45;5.53;;;3.17;;
10910;SDS011;5508;49.150;11.030;2024-02-15T08:29:45;5.13;;;3.10;;
10910;SDS011;5508;49.150;11.030;2024-02-15T08:32:46;10.37;;;4.10;;
10910;SDS011;5508;49.150;11.030;2024-02-15T08:35:47;14.63;;;4.93;;
10910;SDS011;5508;49.150;11.030;2024-02-15T08:38:51;8.23;;;4.70;;
10910;SDS011;5508;49.150;11.030;2024-02-15T08:41:52;7.33;;;4.53;;
10910;SDS011;5508;49.150;11.030;2024-02-15T08:44:53;5.67;;;3.60;;
10910;SDS011;5508;49.150;11.030;2024-02-15T08:47:53;6.20;;;3.63;;
10910;SDS011;5508;49.150;11.030;2024-02-15T08:50:54;7.27;;;3.87;;
10910;SDS011;5508;49.150;11.030;2024-02-15T08:53:55;11.03;;;3.90;;
10910;SDS011;5508;49.150;11.030;2024-02-15T08:56:55;12.17;;;4.03;;
10910;SDS011;5508;49.150;11.030;2024-02-15T08:59:56;6.53;;;3.60;;
10910;SDS011;5508;49.150;11.030;2024-02-15T09:02:57;5.10;;;2.90;;
10910;SDS011;5508;49.150;11.030;2024-02-15T09:05:58;22.27;;;4.77;;
10910;SDS011;5508;49.150;11.030;2024-02-15T09:09:03;5.63;;;3.40;;
10910;SDS011;5508;49.150;11.030;2024-02-15T09:12:03;8.43;;;4.77;;
10910;SDS011;5508;49.150;11.030;2024-02-15T09:15:07;7.50;;;3.43;;
10910;SDS011;5508;49.150;11.030;2024-02-15T09:18:08;7.10;;;3.57;;
10910;SDS011;5508;49.150;11.030;2024-02-15T09:21:12;6.70;;;3.67;;
10910;SDS011;5508;49.150;11.030;2024-02-15T09:24:12;8.60;;;3.27;;
10910;SDS011;5508;49.150;11.030;2024-02-15T09:27:16;8.67;;;4.70;;
10910;SDS011;5508;49.150;11.030;2024-02-15T09:30:16;7.20;;;3.37;;
10910;SDS011;5508;49.150;11.030;2024-02-15T09:33:20;5.60;;;3.13;;
10910;SDS011;5508;49.150;11.030;2024-02-15T09:36:21;15.90;;;8.80;;
10910;SDS011;5508;49.150;11.030;2024-02-15T09:39:21;8.50;;;4.30;;
10910;SDS011;5508;49.150;11.030;2024-02-15T09:42:23;16.80;;;9.60;;
10910;SDS011;5508;49.150;11.030;2024-02-15T09:45:23;3.60;;;2.70;;
10910;SDS011;5508;49.150;11.030;2024-02-15T09:48:25;8.40;;;4.67;;
10910;SDS011;5508;49.150;11.030;2024-02-15T09:51:27;9.53;;;4.50;;
10910;SDS011;5508;49.150;11.030;2024-02-15T09:54:33;16.97;;;6.53;;
10910;SDS011;5508;49.150;11.030;2024-02-15T09:57:35;22.00;;;8.27;;
10910;SDS011;5508;49.150;11.030;2024-02-15T10:00:36;3.60;;;2.43;;
10910;SDS011;5508;49.150;11.030;2024-02-15T10:03:37;3.17;;;1.70;;
10910;SDS011;5508;49.150;11.030;2024-02-15T10:06:40;6.87;;;3.07;;
10910;SDS011;5508;49.150;11.030;2024-02-15T10:09:41;17.87;;;7.00;;
10910;SDS011;5508;49.150;11.030;2024-02-15T10:12:43;6.70;;;4.03;;
10910;SDS011;5508;49.150;11.030;2024-02-15T10:15:43;6.57;;;2.80;;
10910;SDS011;5508;49.150;11.030;2024-02-15T10:18:45;7.83;;;5.77;;
10910;SDS011;5508;49.150;11.030;2024-02-15T10:21:47;10.47;;;5.83;;
10910;SDS011;5508;49.150;11.030;2024-02-15T10:24:50;7.83;;;4.63;;
10910;SDS011;5508;49.150;11.030;2024-02-15T10:27:50;3.63;;;2.57;;
10910;SDS011;5508;49.150;11.030;2024-02-15T10:31:06;3.80;;;1.93;;
10910;SDS011;5508;49.150;11.030;2024-02-15T10:34:08;3.27;;;1.30;;
10910;SDS011;5508;49.150;11.030;2024-02-15T10:37:12;10.77;;;2.10;;
10910;SDS011;5508;49.150;11.030;2024-02-15T10:40:16;8.80;;;1.90;;
10910;SDS011;5508;49.150;11.030;2024-02-15T10:43:18;8.93;;;2.37;;
10910;SDS011;5508;49.150;11.030;2024-02-15T10:46:20;9.60;;;1.37;;
10910;SDS011;5508;49.150;11.030;2024-02-15T10:49:24;7.23;;;3.37;;
10910;SDS011;5508;49.150;11.030;2024-02-15T10:52:25;5.50;;;2.03;;
10910;SDS011;5508;49.150;11.030;2024-02-15T10:55:38;6.80;;;1.23;;
10910;SDS011;5508;49.150;11.030;2024-02-15T10:58:49;2.37;;;1.37;;
10910;SDS011;5508;49.150;11.030;2024-02-15T11:01:52;5.27;;;2.40;;
10910;SDS011;5508;49.150;11.030;2024-02-15T11:05:02;10.27;;;1.90;;
10910;SDS011;5508;49.150;11.030;2024-02-15T11:08:09;2.37;;;1.20;;
10910;SDS011;5508;49.150;11.030;2024-02-15T11:11:11;6.80;;;1.50;;
10910;SDS011;5508;49.150;11.030;2024-02-15T11:23:44;2.60;;;1.27;;
10910;SDS011;5508;49.150;11.030;2024-02-15T11:26:45;2.97;;;1.43;;
10910;SDS011;5508;49.150;11.030;2024-02-15T11:29:53;4.90;;;1.43;;
10910;SDS011;5508;49.150;11.030;2024-02-15T11:32:56;3.40;;;0.80;;
10910;SDS011;5508;49.150;11.030;2024-02-15T11:36:12;6.30;;;1.43;;
10910;SDS011;5508;49.150;11.030;2024-02-15T11:42:40;4.97;;;1.10;;
10910;SDS011;5508;49.150;11.030;2024-02-15T11:45:40;2.67;;;1.27;;
10910;SDS011;5508;49.150;11.030;2024-02-15T11:48:41;2.50;;;0.90;;
10910;SDS011;5508;49.150;11.030;2024-02-15T11:51:42;2.43;;;0.90;;
10910;SDS011;5508;49.150;11.030;2024-02-15T11:54:42;9.00;;;1.40;;
10910;SDS011;5508;49.150;11.030;2024-02-15T11:57:43;5.90;;;1.27;;
10910;SDS011;5508;49.150;11.030;2024-02-15T12:00:50;5.67;;;1.03;;
10910;SDS011;5508;49.150;11.030;2024-02-15T12:04:10;6.07;;;1.80;;
10910;SDS011;5508;49.150;11.030;2024-02-15T12:07:31;4.10;;;1.10;;
10910;SDS011;5508;49.150;11.030;2024-02-15T12:10:58;4.80;;;1.30;;
10910;SDS011;5508;49.150;11.030;2024-02-15T12:14:18;4.37;;;1.20;;
10910;SDS011;5508;49.150;11.030;2024-02-15T12:17:38;3.30;;;1.20;;
10910;SDS011;5508;49.150;11.030;2024-02-15T12:20:57;7.00;;;1.63;;
10910;SDS011;5508;49.150;11.030;2024-02-15T12:23:58;5.00;;;1.33;;
10910;SDS011;5508;49.150;11.030;2024-02-15T12:26:59;2.17;;;1.37;;
10910;SDS011;5508;49.150;11.030;2024-02-15T12:30:03;14.47;;;2.13;;
10910;SDS011;5508;49.150;11.030;2024-02-15T12:33:10;11.23;;;1.60;;
10910;SDS011;5508;49.150;11.030;2024-02-15T12:36:19;2.53;;;1.20;;
10910;SDS011;5508;49.150;11.030;2024-02-15T12:39:25;2.83;;;1.00;;
10910;SDS011;5508;49.150;11.030;2024-02-15T12:42:27;2.27;;;1.03;;
10910;SDS011;5508;49.150;11.030;2024-02-15T12:45:28;8.50;;;2.23;;
10910;SDS011;5508;49.150;11.030;2024-02-15T12:48:29;1.57;;;1.00;;
10910;SDS011;5508;49.150;11.030;2024-02-15T12:51:30;2.77;;;1.10;;
10910;SDS011;5508;49.150;11.030;2024-02-15T12:54:31;4.90;;;1.33;;
10910;SDS011;5508;49.150;11.030;2024-02-15T12:57:32;9.43;;;3.13;;
10910;SDS011;5508;49.150;11.030;2024-02-15T13:00:32;2.37;;;1.10;;
10910;SDS011;5508;49.150;11.030;2024-02-15T13:03:33;14.30;;;1.93;;
10910;SDS011;5508;49.150;11.030;2024-02-15T13:06:33;16.33;;;2.37;;
10910;SDS011;5508;49.150;11.030;2024-02-15T13:09:36;5.30;;;1.30;;
10910;SDS011;5508;49.150;11.030;2024-02-15T13:12:37;4.13;;;1.63;;
10910;SDS011;5508;49.150;11.030;2024-02-15T13:15:37;4.23;;;1.47;;
10910;SDS011;5508;49.150;11.030;2024-02-15T13:18:38;9.03;;;2.00;;
10910;SDS011;5508;49.150;11.030;2024-02-15T13:21:39;2.40;;;1.30;;
10910;SDS011;5508;49.150;11.030;2024-02-15T13:24:40;7.30;;;1.37;;
10910;SDS011;5508;49.150;11.030;2024-02-15T13:27:41;7.20;;;2.27;;
10910;SDS011;5508;49.150;11.030;2024-02-15T13:30:42;2.77;;;1.50;;
10910;SDS011;5508;49.150;11.030;2024-02-15T13:33:45;38.57;;;21.87;;
10910;SDS011;5508;49.150;11.030;2024-02-15T13:36:47;9.63;;;4.90;;
10910;SDS011;5508;49.150;11.030;2024-02-15T13:39:47;20.07;;;11.53;;
10910;SDS011;5508;49.150;11.030;2024-02-15T13:42:49;6.27;;;2.27;;
10910;SDS011;5508;49.150;11.030;2024-02-15T13:45:53;4.07;;;1.40;;
10910;SDS011;5508;49.150;11.030;2024-02-15T13:48:53;2.57;;;1.27;;
10910;SDS011;5508;49.150;11.030;2024-02-15T13:51:54;5.07;;;1.30;;
10910;SDS011;5508;49.150;11.030;2024-02-15T13:54:55;8.40;;;4.37;;
10910;SDS011;5508;49.150;11.030;2024-02-15T13:57:56;3.13;;;1.67;;
10910;SDS011;5508;49.150;11.030;2024-02-15T14:00:57;3.20;;;1.43;;
10910;SDS011;5508;49.150;11.030;2024-02-15T14:04:00;7.93;;;4.53;;
10910;SDS011;5508;49.150;11.030;2024-02-15T14:07:01;8.07;;;2.77;;
10910;SDS011;5508;49.150;11.030;2024-02-15T14:10:02;4.23;;;1.40;;
10910;SDS011;5508;49.150;11.030;2024-02-15T14:13:04;2.00;;;1.70;;
10910;SDS011;5508;49.150;11.030;2024-02-15T14:16:09;4.60;;;1.60;;
10910;SDS011;5508;49.150;11.030;2024-02-15T14:19:09;4.93;;;1.70;;
10910;SDS011;5508;49.150;11.030;2024-02-15T14:22:12;3.80;;;1.53;;
10910;SDS011;5508;49.150;11.030;2024-02-15T14:25:16;6.37;;;4.10;;
10910;SDS011;5508;49.150;11.030;2024-02-15T14:28:17;5.00;;;1.93;;
10910;SDS011;5508;49.150;11.030;2024-02-15T14:31:17;3.53;;;1.57;;
10910;SDS011;5508;49.150;11.030;2024-02-15T14:34:36;4.23;;;1.43;;
10910;SDS011;5508;49.150;11.030;2024-02-15T14:37:38;2.40;;;1.37;;
10910;SDS011;5508;49.150;11.030;2024-02-15T14:40:44;2.67;;;1.43;;
10910;SDS011;5508;49.150;11.030;2024-02-15T14:43:53;9.70;;;1.80;;
10910;SDS011;5508;49.150;11.030;2024-02-15T14:46:54;2.30;;;1.57;;
10910;SDS011;5508;49.150;11.030;2024-02-15T14:49:55;7.87;;;1.90;;
10910;SDS011;5508;49.150;11.030;2024-02-15T14:52:55;3.67;;;1.13;;
10910;SDS011;5508;49.150;11.030;2024-02-15T14:55:57;3.10;;;1.30;;
10910;SDS011;5508;49.150;11.030;2024-02-15T14:58:57;3.17;;;1.77;;
10910;SDS011;5508;49.150;11.030;2024-02-15T15:01:58;2.17;;;1.33;;
10910;SDS011;5508;49.150;11.030;2024-02-15T15:05:08;2.77;;;1.17;;
10910;SDS011;5508;49.150;11.030;2024-02-15T15:08:27;2.97;;;1.33;;
10910;SDS011;5508;49.150;11.030;2024-02-15T15:11:46;2.30;;;1.30;;
10910;SDS011;5508;49.150;11.030;2024-02-15T15:15:06;3.80;;;1.47;;
10910;SDS011;5508;49.150;11.030;2024-02-15T15:18:07;5.43;;;1.23;;
10910;SDS011;5508;49.150;11.030;2024-02-15T15:21:08;6.93;;;1.83;;
10910;SDS011;5508;49.150;11.030;2024-02-15T15:24:08;6.67;;;3.07;;
10910;SDS011;5508;49.150;11.030;2024-02-15T15:27:09;2.77;;;1.57;;
10910;SDS011;5508;49.150;11.030;2024-02-15T15:30:10;3.73;;;1.93;;
10910;SDS011;5508;49.150;11.030;2024-02-15T15:33:11;4.73;;;2.03;;
10910;SDS011;5508;49.150;11.030;2024-02-15T15:36:13;8.00;;;1.83;;
10910;SDS011;5508;49.150;11.030;2024-02-15T15:39:15;7.77;;;4.10;;
10910;SDS011;5508;49.150;11.030;2024-02-15T15:42:16;4.33;;;1.90;;
10910;SDS011;5508;49.150;11.030;2024-02-15T15:45:18;4.83;;;1.70;;
10910;SDS011;5508;49.150;11.030;2024-02-15T15:48:18;4.47;;;1.90;;
10910;SDS011;5508;49.150;11.030;2024-02-15T15:51:19;4.87;;;2.10;;
10910;SDS011;5508;49.150;11.030;2024-02-15T15:54:20;3.40;;;2.00;;
10910;SDS011;5508;49.150;11.030;2024-02-15T15:57:21;10.63;;;3.27;;
10910;SDS011;5508;49.150;11.030;2024-02-15T16:00:21;4.60;;;3.00;;
10910;SDS011;5508;49.150;11.030;2024-02-15T16:03:23;6.30;;;3.13;;
10910;SDS011;5508;49.150;11.030;2024-02-15T16:06:23;6.37;;;2.70;;
10910;SDS011;5508;49.150;11.030;2024-02-15T16:09:24;6.10;;;2.30;;
10910;SDS011;5508;49.150;11.030;2024-02-15T16:12:24;6.30;;;2.03;;
10910;SDS011;5508;49.150;11.030;2024-02-15T16:15:25;3.43;;;1.90;;
10910;SDS011;5508;49.150;11.030;2024-02-15T16:18:26;5.63;;;2.90;;
10910;SDS011;5508;49.150;11.030;2024-02-15T16:21:26;5.73;;;3.30;;
10910;SDS011;5508;49.150;11.030;2024-02-15T16:24:27;6.20;;;2.70;;
10910;SDS011;5508;49.150;11.030;2024-02-15T16:27:27;6.27;;;2.80;;
10910;SDS011;5508;49.150;11.030;2024-02-15T16:30:28;5.37;;;3.47;;
10910;SDS011;5508;49.150;11.030;2024-02-15T16:33:29;4.53;;;3.80;;
10910;SDS011;5508;49.150;11.030;2024-02-15T16:36:29;10.17;;;5.20;;
10910;SDS011;5508;49.150;11.030;2024-02-15T16:39:30;7.87;;;5.20;;
10910;SDS011;5508;49.150;11.030;2024-02-15T16:42:30;8.90;;;5.10;;
10910;SDS011;5508;49.150;11.030;2024-02-15T16:45:33;11.60;;;7.30;;
10910;SDS011;5508;49.150;11.030;2024-02-15T16:48:33;8.77;;;5.83;;
10910;SDS011;5508;49.150;11.030;2024-02-15T16:51:34;5.33;;;4.70;;
10910;SDS011;5508;49.150;11.030;2024-02-15T16:54:35;6.37;;;4.60;;
10910;SDS011;5508;49.150;11.030;2024-02-15T16:57:36;7.80;;;5.23;;
10910;SDS011;5508;49.150;11.030;2024-02-15T17:00:40;11.00;;;5.17;;
10910;SDS011;5508;49.150;11.030;2024-02-15T17:03:41;9.03;;;5.30;;
10910;SDS011;5508;49.150;11.030;2024-02-15T17:06:42;13.37;;;6.37;;
10910;SDS011;5508;49.150;11.030;2024-02-15T17:09:43;9.90;;;4.43;;
10910;SDS011;5508;49.150;11.030;2024-02-15T17:12:43;8.63;;;5.00;;
10910;SDS011;5508;49.150;11.030;2024-02-15T17:15:45;6.57;;;3.83;;
10910;SDS011;5508;49.150;11.030;2024-02-15T17:18:45;4.83;;;3.27;;
10910;SDS011;5508;49.150;11.030;2024-02-15T17:21:48;4.20;;;3.07;;
10910;SDS011;5508;49.150;11.030;2024-02-15T17:24:49;5.70;;;3.60;;
10910;SDS011;5508;49.150;11.030;2024-02-15T17:27:50;11.97;;;3.70;;
10910;SDS011;5508;49.150;11.030;2024-02-15T17:30:52;11.93;;;4.80;;
10910;SDS011;5508;49.150;11.030;2024-02-15T17:33:53;11.07;;;4.23;;
10910;SDS011;5508;49.150;11.030;2024-02-15T17:36:53;16.50;;;11.97;;
10910;SDS011;5508;49.150;11.030;2024-02-15T17:39:54;36.37;;;27.17;;
10910;SDS011;5508;49.150;11.030;2024-02-15T17:42:54;23.17;;;11.63;;
10910;SDS011;5508;49.150;11.030;2024-02-15T17:45:55;13.30;;;11.53;;
10910;SDS011;5508;49.150;11.030;2024-02-15T17:48:59;17.70;;;11.97;;
10910;SDS011;5508;49.150;11.030;2024-02-15T17:52:00;16.07;;;10.77;;
10910;SDS011;5508;49.150;11.030;2024-02-15T17:55:01;22.73;;;8.30;;
10910;SDS011;5508;49.150;11.030;2024-02-15T17:58:05;9.97;;;8.40;;
10910;SDS011;5508;49.150;11.030;2024-02-15T18:01:06;10.07;;;6.97;;
10910;SDS011;5508;49.150;11.030;2024-02-15T18:04:07;10.23;;;5.77;;
10910;SDS011;5508;49.150;11.030;2024-02-15T18:07:07;12.83;;;6.23;;
10910;SDS011;5508;49.150;11.030;2024-02-15T18:10:08;13.83;;;6.63;;
10910;SDS011;5508;49.150;11.030;2024-02-15T18:13:10;22.07;;;8.67;;
10910;SDS011;5508;49.150;11.030;2024-02-15T18:16:12;33.47;;;7.40;;
10910;SDS011;5508;49.150;11.030;2024-02-15T18:19:14;45.17;;;6.80;;
10910;SDS011;5508;49.150;11.030;2024-02-15T18:22:15;8.77;;;4.57;;
10910;SDS011;5508;49.150;11.030;2024-02-15T18:25:16;11.40;;;4.93;;